createdAt,value
2022-10-01T00:01:20.108Z,9.85
2022-10-01T00:05:23.559Z,10.55
2022-10-01T00:09:27.419Z,12.60
2022-10-01T00:13:33.277Z,9.25
2022-10-01T00:17:36.962Z,12.48
2022-10-01T00:21:39.953Z,7.47
2022-10-01T00:25:44.714Z,7.50
2022-10-01T00:29:49.398Z,8.25
2022-10-01T00:33:54.300Z,11.38
2022-10-01T00:37:57.271Z,12.57
2022-10-01T00:42:00.770Z,9.63
2022-10-01T00:46:09.677Z,7.40
2022-10-01T00:50:18.060Z,10.23
2022-10-01T00:54:25.462Z,9.85
2022-10-01T01:02:47.593Z,11.85
2022-10-01T01:06:55.978Z,9.82
2022-10-01T01:11:08.563Z,10.93
2022-10-01T01:15:19.424Z,10.10
2022-10-01T01:19:40.348Z,9.57
2022-10-01T01:24:20.113Z,18.50
2022-10-01T01:28:32.300Z,9.65
2022-10-01T01:32:46.518Z,10.57
2022-10-01T01:36:56.937Z,7.50
2022-10-01T01:41:02.861Z,7.90
2022-10-01T01:45:11.695Z,8.40
2022-10-01T01:49:17.123Z,7.18
2022-10-01T01:53:20.791Z,8.85
2022-10-01T01:57:24.447Z,8.70
2022-10-01T02:01:38.265Z,7.45
2022-10-01T02:05:45.352Z,14.30
2022-10-01T02:09:55.531Z,14.32
2022-10-01T02:14:18.813Z,8.65
2022-10-01T02:18:30.154Z,11.63
2022-10-01T02:22:40.850Z,9.88
2022-10-01T02:26:50.034Z,10.88
2022-10-01T02:30:56.483Z,7.40
2022-10-01T02:35:02.875Z,11.88
2022-10-01T02:39:08.915Z,9.80
2022-10-01T02:43:16.962Z,11.13
2022-10-01T02:47:25.560Z,10.48
2022-10-01T02:51:41.046Z,10.00
2022-10-01T02:55:46.560Z,8.68
2022-10-01T02:59:49.836Z,7.75
2022-10-01T03:03:54.448Z,10.00
2022-10-01T03:07:58.831Z,9.95
2022-10-01T03:12:03.435Z,12.43
2022-10-01T03:16:06.499Z,9.60
2022-10-01T03:20:10.730Z,10.48
2022-10-01T03:24:15.138Z,9.75
2022-10-01T03:28:18.275Z,8.35
2022-10-01T03:32:21.880Z,9.77
2022-10-01T03:36:26.027Z,9.77
2022-10-01T03:40:33.298Z,9.77
2022-10-01T03:44:36.814Z,7.97
2022-10-01T03:48:39.738Z,9.13
2022-10-01T03:52:47.790Z,7.97
2022-10-01T03:56:52.921Z,7.65
2022-10-01T04:00:56.172Z,9.85
2022-10-01T04:04:59.635Z,10.25
2022-10-01T04:09:02.723Z,10.20
2022-10-01T04:13:07.962Z,10.50
2022-10-01T04:17:11.011Z,10.90
2022-10-01T04:21:17.231Z,17.33
2022-10-01T04:25:20.345Z,17.15
2022-10-01T04:29:25.672Z,8.23
2022-10-01T04:33:28.598Z,7.03
2022-10-01T04:37:32.394Z,11.25
2022-10-01T04:41:35.696Z,10.02
2022-10-01T04:45:41.227Z,7.95
2022-10-01T04:49:44.266Z,9.40
2022-10-01T04:53:47.776Z,10.95
2022-10-01T04:57:50.976Z,6.63
2022-10-01T05:01:55.832Z,13.55
2022-10-01T05:05:58.864Z,15.38
2022-10-01T05:10:02.622Z,13.27
2022-10-01T05:14:05.717Z,9.20
2022-10-01T05:18:10.561Z,10.38
2022-10-01T05:22:13.608Z,7.85
2022-10-01T05:26:17.173Z,5.95
2022-10-01T05:30:24.676Z,10.35
2022-10-01T05:34:28.990Z,8.88
2022-10-01T05:38:33.587Z,13.35
2022-10-01T05:42:36.760Z,9.48
2022-10-01T05:46:42.484Z,8.40
2022-10-01T05:50:46.815Z,7.82
2022-10-01T05:54:50.625Z,7.63
2022-10-01T05:58:53.625Z,7.63
2022-10-01T06:02:58.456Z,13.05
2022-10-01T06:07:03.406Z,15.73
2022-10-01T06:11:06.674Z,7.20
2022-10-01T06:15:10.798Z,7.50
2022-10-01T06:19:14.359Z,6.57
2022-10-01T06:23:18.906Z,5.95
2022-10-01T06:27:22.324Z,8.65
2022-10-01T06:31:25.405Z,8.10
2022-10-01T06:35:29.005Z,13.48
2022-10-01T06:39:33.507Z,9.00
2022-10-01T06:43:36.866Z,10.27
2022-10-01T06:47:39.833Z,9.93
2022-10-01T06:52:00.576Z,11.75
2022-10-01T06:56:09.346Z,7.20
2022-10-01T07:00:14.337Z,6.50
2022-10-01T07:04:17.384Z,8.02
2022-10-01T07:08:21.540Z,7.25
2022-10-01T07:12:26.551Z,10.65
2022-10-01T07:16:30.097Z,9.05
2022-10-01T07:20:36.069Z,7.88
2022-10-01T07:24:40.001Z,6.15
2022-10-01T07:28:45.071Z,4.65
2022-10-01T07:32:48.548Z,5.53
2022-10-01T07:36:51.645Z,8.35
2022-10-01T07:40:56.230Z,8.55
2022-10-01T07:45:00.702Z,7.68
2022-10-01T07:49:04.366Z,12.02
2022-10-01T07:53:08.487Z,9.10
2022-10-01T07:57:12.059Z,8.75
2022-10-01T08:01:17.280Z,6.00
2022-10-01T08:05:23.720Z,7.63
2022-10-01T08:09:27.286Z,11.55
2022-10-01T08:13:30.281Z,9.30
2022-10-01T08:17:35.655Z,8.45
2022-10-01T08:21:38.684Z,10.77
2022-10-01T08:25:43.266Z,9.75
2022-10-01T08:29:47.028Z,8.50
2022-10-01T08:33:52.078Z,11.93
2022-10-01T08:37:57.291Z,10.85
2022-10-01T08:42:10.005Z,8.77
2022-10-01T08:46:17.334Z,15.00
2022-10-01T08:50:33.670Z,12.52
2022-10-01T08:54:42.917Z,9.57
2022-10-01T08:58:52.180Z,9.20
2022-10-01T09:02:58.728Z,10.45
2022-10-01T09:07:15.782Z,5.63
2022-10-01T09:11:37.949Z,7.60
2022-10-01T09:15:49.099Z,8.23
2022-10-01T09:20:04.298Z,7.80
2022-10-01T09:24:16.075Z,8.02
2022-10-01T09:28:22.672Z,7.15
2022-10-01T09:32:32.370Z,6.22
2022-10-01T09:36:40.576Z,7.78
2022-10-01T09:40:51.771Z,7.63
2022-10-01T09:44:55.328Z,8.05
2022-10-01T09:49:07.203Z,9.23
2022-10-01T09:53:15.676Z,7.20
2022-10-01T09:57:27.411Z,5.18
2022-10-01T10:01:44.266Z,8.00
2022-10-01T10:05:49.887Z,4.28
2022-10-01T10:09:53.664Z,5.45
2022-10-01T10:14:01.520Z,10.73
2022-10-01T10:18:09.085Z,6.50
2022-10-01T10:22:14.714Z,4.88
2022-10-01T10:26:22.139Z,4.57
2022-10-01T10:30:27.736Z,5.65
2022-10-01T10:34:33.967Z,5.35
2022-10-01T10:38:37.117Z,6.57
2022-10-01T10:42:48.372Z,5.15
2022-10-01T10:46:55.082Z,5.93
2022-10-01T10:51:02.808Z,5.38
2022-10-01T10:55:22.444Z,4.60
2022-10-01T10:59:26.161Z,5.70
2022-10-01T11:03:33.332Z,7.32
2022-10-01T11:07:37.113Z,5.03
2022-10-01T11:11:51.431Z,5.60
2022-10-01T11:16:15.303Z,5.45
2022-10-01T11:20:34.493Z,5.82
2022-10-01T11:25:01.176Z,7.28
2022-10-01T11:29:18.412Z,4.28
2022-10-01T11:33:31.788Z,5.82
2022-10-01T11:38:05.740Z,5.88
2022-10-01T11:42:13.791Z,5.47
2022-10-01T11:46:24.376Z,7.30
2022-10-01T11:50:32.743Z,4.65
2022-10-01T11:54:51.226Z,6.35
2022-10-01T11:59:03.365Z,6.82
2022-10-01T12:03:14.036Z,4.45
2022-10-01T12:07:23.521Z,5.68
2022-10-01T12:11:33.679Z,4.80
2022-10-01T12:15:42.825Z,5.10
2022-10-01T12:19:51.524Z,8.32
2022-10-01T12:23:59.669Z,8.48
2022-10-01T12:28:10.843Z,6.90
2022-10-01T12:32:23.701Z,7.75
2022-10-01T12:36:37.058Z,4.70
2022-10-01T12:40:48.114Z,6.05
2022-10-01T12:45:06.770Z,4.38
2022-10-01T12:49:22.934Z,4.25
2022-10-01T12:53:36.015Z,5.97
2022-10-01T12:57:47.969Z,2.80
2022-10-01T13:02:11.652Z,2.30
2022-10-01T13:06:30.573Z,1.02
2022-10-01T13:10:54.188Z,0.90
2022-10-01T13:14:58.277Z,1.40
2022-10-01T13:19:09.466Z,1.00
2022-10-01T13:23:22.118Z,2.28
2022-10-01T13:27:30.948Z,2.33
2022-10-01T13:31:38.704Z,1.75
2022-10-01T13:35:54.247Z,1.40
2022-10-01T13:39:58.827Z,3.45
2022-10-01T13:44:21.855Z,2.08
2022-10-01T13:48:29.357Z,3.75
2022-10-01T13:52:35.263Z,2.22
2022-10-01T13:56:39.310Z,2.78
2022-10-01T14:00:50.048Z,4.68
2022-10-01T14:04:53.603Z,3.90
2022-10-01T14:09:07.209Z,1.95
2022-10-01T14:13:24.944Z,2.05
2022-10-01T14:17:31.757Z,2.42
2022-10-01T14:21:48.468Z,2.95
2022-10-01T14:26:00.862Z,2.70
2022-10-01T14:30:11.720Z,4.88
2022-10-01T14:34:36.198Z,2.88
2022-10-01T14:38:39.234Z,2.95
2022-10-01T14:42:44.141Z,3.33
2022-10-01T14:46:47.375Z,2.42
2022-10-01T14:50:57.063Z,3.33
2022-10-01T14:55:03.613Z,3.45
2022-10-01T14:59:10.418Z,3.53
2022-10-01T15:03:16.413Z,2.80
2022-10-01T15:07:20.586Z,3.10
2022-10-01T15:11:25.484Z,3.90
2022-10-01T15:15:41.510Z,3.90
2022-10-01T15:19:48.408Z,3.80
2022-10-01T15:23:51.922Z,4.03
2022-10-01T15:27:57.156Z,7.38
2022-10-01T15:32:03.127Z,5.45
2022-10-01T15:36:09.096Z,5.53
2022-10-01T15:40:24.499Z,3.83
2022-10-01T15:44:47.495Z,3.10
2022-10-01T15:49:13.297Z,3.45
2022-10-01T15:53:21.203Z,4.55
2022-10-01T15:57:25.939Z,2.38
2022-10-01T16:01:39.192Z,2.53
2022-10-01T16:05:48.964Z,2.67
2022-10-01T16:09:59.251Z,3.60
2022-10-01T16:14:23.152Z,5.85
2022-10-01T16:18:26.248Z,4.63
2022-10-01T16:22:33.539Z,3.60
2022-10-01T16:26:39.622Z,5.05
2022-10-01T16:30:42.916Z,3.70
2022-10-01T16:34:46.457Z,3.97
2022-10-01T16:38:51.554Z,4.82
2022-10-01T16:42:55.699Z,6.40
2022-10-01T16:46:58.711Z,4.22
2022-10-01T16:51:02.023Z,4.78
2022-10-01T16:55:18.147Z,8.45
2022-10-01T16:59:22.736Z,6.13
2022-10-01T17:03:27.473Z,4.97
2022-10-01T17:07:30.999Z,5.82
2022-10-01T17:11:35.736Z,4.93
2022-10-01T17:15:39.683Z,4.32
2022-10-01T17:19:43.145Z,5.60
2022-10-01T17:23:49.986Z,2.78
2022-10-01T17:27:57.081Z,3.40
2022-10-01T17:32:00.529Z,2.47
2022-10-01T17:36:07.962Z,2.13
2022-10-01T17:40:12.690Z,2.97
2022-10-01T17:44:17.617Z,2.15
2022-10-01T17:48:21.985Z,3.38
2022-10-01T17:52:25.668Z,2.55
2022-10-01T17:56:30.490Z,3.63
2022-10-01T18:00:35.450Z,3.05
2022-10-01T18:04:43.299Z,3.35
2022-10-01T18:09:01.721Z,3.20
2022-10-01T18:13:05.216Z,2.15
2022-10-01T18:17:10.355Z,1.52
2022-10-01T18:21:15.771Z,1.48
2022-10-01T18:25:20.492Z,1.65
2022-10-01T18:29:26.356Z,2.38
2022-10-01T18:33:31.467Z,3.28
2022-10-01T18:37:40.042Z,1.27
2022-10-01T18:41:44.115Z,1.08
2022-10-01T18:46:02.118Z,2.15
2022-10-01T18:50:25.705Z,2.25
2022-10-01T18:54:46.878Z,0.88
2022-10-01T18:59:16.713Z,1.20
2022-10-01T19:03:43.861Z,1.42
2022-10-01T19:08:01.243Z,1.23
2022-10-01T19:12:19.953Z,1.48
2022-10-01T19:16:39.173Z,1.17
2022-10-01T19:20:51.711Z,3.78
2022-10-01T19:25:17.374Z,2.37
2022-10-01T19:29:37.190Z,2.92
2022-10-01T19:33:47.365Z,3.53
2022-10-01T19:37:53.706Z,0.90
2022-10-01T19:42:03.032Z,1.70
2022-10-01T19:46:11.671Z,0.50
2022-10-01T19:50:21.744Z,0.47
2022-10-01T19:54:29.860Z,0.80
2022-10-01T19:58:35.117Z,0.88
2022-10-01T20:02:47.234Z,0.73
2022-10-01T20:06:51.668Z,1.70
2022-10-01T20:10:57.483Z,1.23
2022-10-01T20:15:16.100Z,0.30
2022-10-01T20:19:30.438Z,1.20
2022-10-01T20:23:47.472Z,0.93
2022-10-01T20:28:01.215Z,0.63
2022-10-01T20:32:14.760Z,0.40
2022-10-01T20:36:22.684Z,1.35
2022-10-01T20:40:31.321Z,0.32
2022-10-01T20:44:38.361Z,1.05
2022-10-01T20:48:45.529Z,1.08
2022-10-01T20:53:02.445Z,0.10
2022-10-01T20:57:11.602Z,0.38
2022-10-01T21:01:21.988Z,1.17
2022-10-01T21:05:30.870Z,0.28
2022-10-01T21:09:38.327Z,0.93
2022-10-01T21:13:49.650Z,0.73
2022-10-01T21:18:01.405Z,1.33
2022-10-01T21:22:18.090Z,0.20
2022-10-01T21:26:36.191Z,0.20
2022-10-01T21:30:53.187Z,0.60
2022-10-01T21:35:10.895Z,0.45
2022-10-01T21:39:26.478Z,1.23
2022-10-01T21:43:43.361Z,0.20
2022-10-01T21:48:16.875Z,0.32
2022-10-01T21:52:31.155Z,0.35
2022-10-01T21:56:59.375Z,1.50
2022-10-01T22:01:12.682Z,0.50
2022-10-01T22:05:26.505Z,0.43
2022-10-01T22:09:37.539Z,0.32
2022-10-01T22:13:50.468Z,2.80
2022-10-01T22:22:05.168Z,0.65
2022-10-01T22:26:17.658Z,1.42
2022-10-01T22:30:23.758Z,2.28
2022-10-01T22:34:33.486Z,0.30
2022-10-01T22:38:43.777Z,0.50
2022-10-01T22:42:52.713Z,0.15
2022-10-01T22:47:09.027Z,3.13
2022-10-01T22:51:25.404Z,2.00
2022-10-01T22:55:39.316Z,0.25
2022-10-01T22:59:53.242Z,1.17
2022-10-01T23:04:11.102Z,4.70
2022-10-01T23:08:23.028Z,1.40
2022-10-01T23:12:39.413Z,0.30
2022-10-01T23:16:49.038Z,0.10
2022-10-01T23:21:07.287Z,0.70
2022-10-01T23:25:31.042Z,8.77
2022-10-01T23:29:50.274Z,0.20
2022-10-01T23:34:02.792Z,0.57
2022-10-01T23:38:25.093Z,8.88
2022-10-01T23:42:35.832Z,0.73
2022-10-01T23:46:43.958Z,0.30
2022-10-01T23:50:54.866Z,2.65
2022-10-01T23:55:18.821Z,0.70
2022-10-01T23:59:28.978Z,0.57
